createdAt,value
2023-05-22T00:00:42.303Z,31.00
2023-05-22T00:03:10.038Z,31.00
2023-05-22T00:05:44.172Z,31.10
2023-05-22T00:08:13.541Z,31.10
2023-05-22T00:10:43.264Z,31.10
2023-05-22T00:13:15.906Z,31.30
2023-05-22T00:15:44.055Z,31.40
2023-05-22T00:18:12.182Z,31.40
2023-05-22T00:20:40.246Z,31.60
2023-05-22T00:23:09.479Z,31.60
2023-05-22T00:25:37.227Z,31.60
2023-05-22T00:28:05.040Z,31.70
2023-05-22T00:30:33.081Z,31.70
2023-05-22T00:33:01.098Z,31.70
2023-05-22T00:35:30.309Z,31.70
2023-05-22T00:38:02.664Z,31.70
2023-05-22T00:40:31.236Z,31.70
2023-05-22T00:42:59.847Z,31.90
2023-05-22T00:45:27.539Z,31.90
2023-05-22T00:47:55.313Z,32.00
2023-05-22T00:50:23.347Z,31.90
2023-05-22T00:52:51.231Z,32.00
2023-05-22T00:55:19.013Z,32.10
2023-05-22T00:57:47.917Z,32.10
2023-05-22T01:00:16.572Z,32.10
2023-05-22T01:02:49.162Z,32.10
2023-05-22T01:05:19.826Z,32.10
2023-05-22T01:08:07.803Z,32.20
2023-05-22T01:10:56.029Z,32.20
2023-05-22T01:13:23.604Z,32.40
2023-05-22T01:15:56.964Z,32.30
2023-05-22T01:18:33.873Z,32.30
2023-05-22T01:21:01.934Z,32.50
2023-05-22T01:23:29.854Z,32.40
2023-05-22T01:25:57.913Z,32.40
2023-05-22T01:28:29.513Z,32.50
2023-05-22T01:31:01.032Z,32.50
2023-05-22T01:33:33.681Z,32.60
2023-05-22T01:36:03.581Z,32.70
2023-05-22T01:38:51.524Z,32.80
2023-05-22T01:41:24.891Z,32.80
2023-05-22T01:44:04.518Z,32.80
2023-05-22T01:46:40.881Z,32.90
2023-05-22T01:49:14.810Z,32.90
2023-05-22T01:51:44.295Z,32.90
2023-05-22T01:54:12.361Z,33.00
2023-05-22T01:56:41.281Z,33.10
2023-05-22T01:59:09.198Z,33.30
2023-05-22T02:01:37.024Z,33.30
2023-05-22T02:04:05.493Z,33.30
2023-05-22T02:06:33.859Z,33.20
2023-05-22T02:09:06.046Z,33.40
2023-05-22T02:11:34.651Z,33.40
2023-05-22T02:14:02.568Z,33.50
2023-05-22T02:16:30.659Z,33.70
2023-05-22T02:18:58.759Z,33.70
2023-05-22T02:21:28.559Z,33.80
2023-05-22T02:23:56.496Z,33.90
2023-05-22T02:26:24.525Z,33.90
2023-05-22T02:28:52.303Z,33.90
2023-05-22T02:31:20.006Z,33.70
2023-05-22T02:33:48.299Z,34.00
2023-05-22T02:36:16.080Z,34.00
2023-05-22T02:38:43.981Z,34.00
2023-05-22T02:41:11.827Z,34.10
2023-05-22T02:43:41.081Z,34.10
2023-05-22T02:46:08.973Z,34.10
2023-05-22T02:48:37.193Z,34.10
2023-05-22T02:51:05.173Z,34.00
2023-05-22T02:53:33.073Z,34.30
2023-05-22T02:56:01.162Z,34.50
2023-05-22T02:58:29.382Z,34.60
2023-05-22T03:00:57.101Z,34.70
2023-05-22T03:03:25.422Z,34.70
2023-05-22T03:05:53.363Z,34.80
2023-05-22T03:08:21.086Z,35.00
2023-05-22T03:10:49.852Z,34.90
2023-05-22T03:13:17.756Z,35.00
2023-05-22T03:15:45.608Z,35.00
2023-05-22T03:18:13.532Z,35.00
2023-05-22T03:20:41.462Z,35.20
2023-05-22T03:23:09.236Z,35.20
2023-05-22T03:25:37.257Z,35.10
2023-05-22T03:28:05.356Z,35.10
2023-05-22T03:30:33.213Z,35.50
2023-05-22T03:33:01.194Z,35.70
2023-05-22T03:35:28.935Z,35.80
2023-05-22T03:37:57.008Z,35.80
2023-05-22T03:40:25.006Z,35.80
2023-05-22T03:42:52.725Z,35.60
2023-05-22T03:45:20.682Z,35.60
2023-05-22T03:47:48.794Z,35.80
2023-05-22T03:50:16.603Z,35.80
2023-05-22T03:52:44.793Z,35.80
2023-05-22T03:55:12.855Z,35.80
2023-05-22T03:57:40.631Z,35.80
2023-05-22T04:00:08.497Z,35.70
2023-05-22T04:05:17.611Z,35.90
2023-05-22T04:07:45.599Z,35.80
2023-05-22T04:10:13.471Z,35.90
2023-05-22T04:12:41.225Z,36.00
2023-05-22T04:15:09.065Z,36.20
2023-05-22T04:17:36.906Z,36.30
2023-05-22T04:20:04.834Z,36.40
2023-05-22T04:22:33.761Z,36.50
2023-05-22T04:25:01.568Z,36.60
2023-05-22T04:27:29.335Z,36.60
2023-05-22T04:29:57.748Z,36.60
2023-05-22T04:32:25.833Z,36.60
2023-05-22T04:34:53.701Z,36.60
2023-05-22T04:37:21.820Z,36.60
2023-05-22T04:39:49.815Z,36.90
2023-05-22T04:42:17.951Z,37.10
2023-05-22T04:44:46.199Z,37.00
2023-05-22T04:47:14.516Z,37.10
2023-05-22T04:49:42.356Z,37.20
2023-05-22T04:52:10.593Z,37.10
2023-05-22T04:54:38.728Z,37.20
2023-05-22T04:57:07.097Z,37.40
2023-05-22T04:59:35.178Z,37.30
2023-05-22T05:02:03.080Z,37.30
2023-05-22T05:04:31.867Z,37.20
2023-05-22T05:06:59.976Z,37.40
2023-05-22T05:09:27.900Z,37.50
2023-05-22T05:11:55.719Z,37.60
2023-05-22T05:14:26.397Z,37.70
2023-05-22T05:16:54.168Z,37.70
2023-05-22T05:19:22.130Z,37.80
2023-05-22T05:21:50.273Z,37.80
2023-05-22T05:24:18.355Z,37.90
2023-05-22T05:26:46.426Z,38.10
2023-05-22T05:29:16.545Z,38.10
2023-05-22T05:31:44.546Z,38.00
2023-05-22T05:34:13.754Z,37.70
2023-05-22T05:36:43.165Z,37.60
2023-05-22T05:39:11.652Z,37.40
2023-05-22T05:41:39.476Z,37.30
2023-05-22T05:44:08.017Z,37.60
2023-05-22T05:46:36.298Z,37.90
2023-05-22T05:49:04.479Z,38.00
2023-05-22T05:51:32.909Z,38.20
2023-05-22T05:54:00.615Z,38.20
2023-05-22T05:56:28.687Z,38.20
2023-05-22T05:58:57.027Z,38.40
2023-05-22T06:01:25.000Z,38.30
2023-05-22T06:03:52.980Z,38.50
2023-05-22T06:06:41.019Z,38.60
2023-05-22T06:09:08.804Z,38.50
2023-05-22T06:11:37.019Z,38.40
2023-05-22T06:14:05.268Z,38.60
2023-05-22T06:16:33.162Z,38.70
2023-05-22T06:19:00.905Z,38.40
2023-05-22T06:21:29.758Z,38.30
2023-05-22T06:23:57.462Z,38.30
2023-05-22T06:26:25.217Z,38.70
2023-05-22T06:28:53.309Z,39.00
2023-05-22T06:31:21.093Z,39.20
2023-05-22T06:33:49.013Z,39.20
2023-05-22T06:36:18.302Z,39.10
2023-05-22T06:38:46.074Z,39.10
2023-05-22T06:41:14.085Z,39.10
2023-05-22T06:43:41.848Z,39.20
2023-05-22T06:46:09.893Z,39.20
2023-05-22T06:48:37.848Z,39.20
2023-05-22T06:51:05.797Z,39.10
2023-05-22T06:53:33.907Z,39.20
2023-05-22T06:56:01.653Z,39.20
2023-05-22T06:58:29.448Z,39.10
2023-05-22T07:00:57.629Z,39.40
2023-05-22T07:03:25.363Z,39.20
2023-05-22T07:05:54.333Z,39.00
2023-05-22T07:08:22.120Z,39.10
2023-05-22T07:10:49.858Z,39.10
2023-05-22T07:13:19.772Z,39.20
2023-05-22T07:15:47.810Z,39.50
2023-05-22T07:18:15.590Z,39.50
2023-05-22T07:20:43.651Z,39.60
2023-05-22T07:23:11.675Z,39.50
2023-05-22T07:25:39.457Z,39.50
2023-05-22T07:28:09.673Z,39.60
2023-05-22T07:30:44.029Z,39.70
2023-05-22T07:33:13.055Z,39.70
2023-05-22T07:35:41.032Z,39.80
2023-05-22T07:38:15.819Z,39.50
2023-05-22T07:40:47.453Z,39.10
2023-05-22T07:43:15.204Z,38.90
2023-05-22T07:45:43.670Z,38.70
2023-05-22T07:51:01.144Z,39.10
2023-05-22T07:53:28.946Z,38.70
2023-05-22T07:55:56.645Z,38.60
2023-05-22T08:04:04.559Z,38.70
2023-05-22T08:06:33.853Z,38.60
2023-05-22T08:09:01.662Z,38.50
2023-05-22T08:11:33.222Z,38.70
2023-05-22T08:14:01.053Z,38.80
2023-05-22T08:16:28.974Z,38.90
2023-05-22T08:38:45.882Z,39.00
2023-05-22T08:41:14.149Z,39.00
2023-05-22T08:43:41.913Z,38.90
2023-05-22T09:00:14.686Z,38.60
2023-05-22T09:02:47.732Z,38.60
2023-05-22T09:05:15.704Z,38.70
2023-05-22T09:07:43.393Z,38.50
2023-05-22T09:10:11.176Z,38.60
2023-05-22T09:26:43.886Z,38.40
2023-05-22T09:29:11.646Z,38.20
2023-05-22T09:31:39.386Z,38.10
2023-05-22T09:45:21.125Z,37.30
2023-05-22T09:47:49.011Z,37.00
2023-05-22T09:50:16.817Z,36.70
2023-05-22T10:04:10.039Z,35.50
2023-05-22T10:06:37.735Z,35.60
2023-05-22T10:09:05.536Z,35.80
2023-05-22T10:11:34.395Z,35.60
2023-05-22T10:14:04.727Z,35.60
2023-05-22T10:16:32.749Z,35.50
2023-05-22T10:19:03.841Z,35.30
2023-05-22T10:21:31.927Z,35.20
2023-05-22T10:23:59.720Z,35.40
2023-05-22T10:26:28.828Z,35.20
2023-05-22T10:28:56.535Z,35.20
2023-05-22T10:31:24.302Z,35.10
2023-05-22T10:33:54.804Z,35.10
2023-05-22T10:36:22.649Z,35.10
2023-05-22T10:38:50.449Z,35.10
2023-05-22T10:41:21.173Z,34.90
2023-05-22T10:43:48.983Z,34.80
2023-05-22T10:46:27.168Z,34.80
2023-05-22T10:49:03.776Z,34.70
2023-05-22T10:51:32.995Z,34.80
2023-05-22T10:54:00.718Z,34.60
2023-05-22T10:56:28.466Z,34.50
2023-05-22T10:58:58.088Z,34.30
2023-05-22T11:01:25.853Z,34.20
2023-05-22T11:03:53.754Z,34.10
2023-05-22T11:06:23.302Z,34.10
2023-05-22T11:08:50.970Z,33.90
2023-05-22T11:11:18.614Z,33.90
2023-05-22T11:16:37.784Z,33.90
2023-05-22T11:19:21.272Z,33.80
2023-05-22T11:21:55.380Z,33.80
2023-05-22T11:24:23.102Z,33.80
2023-05-22T11:26:50.909Z,33.90
2023-05-22T11:29:20.853Z,33.80
2023-05-22T11:31:48.648Z,33.60
2023-05-22T11:34:16.595Z,33.60
2023-05-22T11:36:45.913Z,33.50
2023-05-22T11:39:13.605Z,33.50
2023-05-22T11:41:41.287Z,33.30
2023-05-22T11:44:09.714Z,33.40
2023-05-22T11:46:37.586Z,33.30
2023-05-22T11:49:05.278Z,33.30
2023-05-22T11:51:33.900Z,33.30
2023-05-22T11:54:01.780Z,33.10
2023-05-22T11:56:29.490Z,33.20
2023-05-22T11:59:02.546Z,33.10
2023-05-22T12:01:30.472Z,33.10
2023-05-22T12:03:58.748Z,33.00
2023-05-22T12:06:26.642Z,32.90
2023-05-22T12:08:54.508Z,32.80
2023-05-22T12:11:22.637Z,32.90
2023-05-22T12:13:52.351Z,33.00
2023-05-22T12:16:32.971Z,32.80
2023-05-22T12:19:01.181Z,32.90
2023-05-22T12:21:28.921Z,32.80
2023-05-22T12:23:57.236Z,32.80
2023-05-22T12:26:25.303Z,32.70
2023-05-22T12:28:53.539Z,32.70
2023-05-22T12:31:21.503Z,32.40
2023-05-22T12:33:49.327Z,32.50
2023-05-22T12:36:17.070Z,32.50
2023-05-22T12:38:45.156Z,32.60
2023-05-22T12:41:12.975Z,32.70
2023-05-22T12:43:40.754Z,32.90
2023-05-22T12:46:09.383Z,32.80
2023-05-22T12:48:37.256Z,32.90
2023-05-22T12:51:05.078Z,32.80
2023-05-22T12:53:33.622Z,32.60
2023-05-22T12:56:01.441Z,32.70
2023-05-22T12:58:29.179Z,32.60
2023-05-22T13:01:01.061Z,32.50
2023-05-22T13:03:28.837Z,32.30
2023-05-22T13:05:56.597Z,32.50
2023-05-22T13:08:28.997Z,32.40
2023-05-22T13:10:56.773Z,32.40
2023-05-22T13:13:24.480Z,32.40
2023-05-22T13:15:55.234Z,32.20
2023-05-22T13:18:23.509Z,32.20
2023-05-22T13:20:51.546Z,32.00
2023-05-22T13:23:20.577Z,32.20
2023-05-22T13:25:48.982Z,32.00
2023-05-22T13:28:16.737Z,31.90
2023-05-22T13:30:45.098Z,31.90
2023-05-22T13:33:12.848Z,32.00
2023-05-22T13:35:41.970Z,32.10
2023-05-22T13:38:09.977Z,32.10
2023-05-22T13:40:38.034Z,31.90
2023-05-22T13:43:05.750Z,32.00
2023-05-22T13:45:47.120Z,31.90
2023-05-22T13:48:14.885Z,32.00
2023-05-22T13:50:43.107Z,32.10
2023-05-22T13:53:15.812Z,32.00
2023-05-22T13:55:43.815Z,32.00
2023-05-22T13:58:11.536Z,32.00
2023-05-22T14:00:45.078Z,32.00
2023-05-22T14:03:13.385Z,31.90
2023-05-22T14:05:43.751Z,31.90
2023-05-22T14:08:20.963Z,31.90
2023-05-22T14:10:49.132Z,31.80
2023-05-22T14:13:16.883Z,31.90
2023-05-22T14:15:44.716Z,31.80
2023-05-22T14:18:13.805Z,31.90
2023-05-22T14:20:41.828Z,31.80
2023-05-22T14:23:09.671Z,31.60
2023-05-22T14:25:37.802Z,31.80
2023-05-22T14:28:05.700Z,31.80
2023-05-22T14:30:33.445Z,31.80
2023-05-22T14:33:02.207Z,31.80
2023-05-22T14:35:29.896Z,31.80
2023-05-22T14:37:58.869Z,31.70
2023-05-22T14:40:26.811Z,31.60
2023-05-22T14:48:18.038Z,31.80
2023-05-22T14:50:52.423Z,31.80
2023-05-22T14:53:20.050Z,31.60
2023-05-22T14:55:55.901Z,31.60
2023-05-22T14:58:23.612Z,31.70
2023-05-22T15:00:51.717Z,31.70
2023-05-22T15:03:24.354Z,31.70
2023-05-22T15:05:53.989Z,31.80
2023-05-22T15:08:38.927Z,31.80
2023-05-22T15:11:07.921Z,31.70
2023-05-22T15:13:40.511Z,31.70
2023-05-22T15:16:08.670Z,31.70
2023-05-22T15:18:36.433Z,31.70
2023-05-22T15:21:04.374Z,31.70
2023-05-22T15:23:32.772Z,31.70
2023-05-22T15:26:00.539Z,31.70
2023-05-22T15:28:28.502Z,31.70
2023-05-22T15:33:37.223Z,31.70
2023-05-22T15:36:06.340Z,31.70
2023-05-22T15:38:34.139Z,31.70
2023-05-22T15:41:01.820Z,31.60
2023-05-22T15:43:29.840Z,31.70
2023-05-22T15:45:57.633Z,31.60
2023-05-22T15:48:25.335Z,31.60
2023-05-22T15:50:53.559Z,31.60
2023-05-22T15:53:21.254Z,31.60
2023-05-22T15:55:48.968Z,31.70
2023-05-22T15:58:17.124Z,31.60
2023-05-22T16:00:44.856Z,31.50
2023-05-22T16:03:12.614Z,31.50
2023-05-22T16:05:41.472Z,31.60
2023-05-22T16:08:14.181Z,31.50
2023-05-22T16:10:42.446Z,31.40
2023-05-22T16:13:10.415Z,31.40
2023-05-22T16:15:38.570Z,31.40
2023-05-22T16:18:07.222Z,31.40
2023-05-22T16:20:35.559Z,31.30
2023-05-22T16:23:03.293Z,31.30
2023-05-22T16:25:31.531Z,31.30
2023-05-22T16:27:59.224Z,31.30
2023-05-22T16:30:26.939Z,31.30
2023-05-22T16:32:55.038Z,31.30
2023-05-22T16:35:22.747Z,31.30
2023-05-22T16:37:50.519Z,31.20
2023-05-22T16:40:20.252Z,31.20
2023-05-22T16:42:48.076Z,31.10
2023-05-22T16:45:15.832Z,31.10
2023-05-22T16:47:43.995Z,31.30
2023-05-22T16:50:11.683Z,31.30
2023-05-22T16:52:39.407Z,31.20
2023-05-22T16:55:07.473Z,31.20
2023-05-22T16:57:36.179Z,31.20
2023-05-22T17:00:04.096Z,31.20
2023-05-22T17:02:32.726Z,31.20
2023-05-22T17:05:00.532Z,31.20
2023-05-22T17:07:28.300Z,31.10
2023-05-22T17:09:56.361Z,31.10
2023-05-22T17:12:24.490Z,31.10
2023-05-22T17:14:52.207Z,31.10
2023-05-22T17:17:22.084Z,31.10
2023-05-22T17:19:49.831Z,31.00
2023-05-22T17:22:17.560Z,31.00
2023-05-22T17:24:45.470Z,31.00
2023-05-22T17:27:24.061Z,31.00
2023-05-22T17:29:59.895Z,30.90
2023-05-22T17:32:27.757Z,31.00
2023-05-22T17:34:55.630Z,31.00
2023-05-22T17:37:23.421Z,31.00
2023-05-22T17:39:51.565Z,31.00
2023-05-22T17:42:19.307Z,31.00
2023-05-22T17:44:47.330Z,30.90
2023-05-22T17:47:15.134Z,30.90
2023-05-22T17:49:42.893Z,30.90
2023-05-22T17:52:11.521Z,30.80
2023-05-22T17:54:39.226Z,30.80
2023-05-22T17:57:06.991Z,30.90
2023-05-22T17:59:35.110Z,30.90
2023-05-22T18:02:03.355Z,30.90
2023-05-22T18:04:31.702Z,30.90
2023-05-22T18:07:01.055Z,30.90
2023-05-22T18:09:29.015Z,30.80
2023-05-22T18:11:58.313Z,30.80
2023-05-22T18:14:27.626Z,30.80
2023-05-22T18:16:55.753Z,30.80
2023-05-22T18:19:23.720Z,30.80
2023-05-22T18:21:51.770Z,30.70
2023-05-22T18:24:23.116Z,30.70
2023-05-22T18:26:52.592Z,30.70
2023-05-22T18:29:20.308Z,30.80
2023-05-22T18:31:48.094Z,30.80
2023-05-22T18:34:16.772Z,30.70
2023-05-22T18:36:44.510Z,30.70
2023-05-22T18:39:12.240Z,30.80
2023-05-22T18:41:40.333Z,30.70
2023-05-22T18:44:08.091Z,30.70
2023-05-22T18:46:35.844Z,30.70
2023-05-22T18:49:05.930Z,30.70
2023-05-22T18:51:33.972Z,30.80
2023-05-22T18:54:01.793Z,30.80
2023-05-22T18:56:29.727Z,30.80
2023-05-22T18:58:57.505Z,30.70
2023-05-22T19:01:25.488Z,30.60
2023-05-22T19:03:53.499Z,30.70
2023-05-22T19:06:21.214Z,30.70
2023-05-22T19:08:53.435Z,30.70
2023-05-22T19:11:21.366Z,30.60
2023-05-22T19:13:49.088Z,30.70
2023-05-22T19:16:16.866Z,30.70
2023-05-22T19:18:44.853Z,30.70
2023-05-22T19:21:12.729Z,30.60
2023-05-22T19:23:40.445Z,30.60
2023-05-22T19:26:09.012Z,30.60
2023-05-22T19:28:36.719Z,30.60
2023-05-22T19:31:04.507Z,30.60
2023-05-22T19:33:32.681Z,30.60
2023-05-22T19:36:00.367Z,30.60
2023-05-22T19:38:28.079Z,30.50
2023-05-22T19:40:56.183Z,30.60
2023-05-22T19:43:23.979Z,30.50
2023-05-22T19:45:51.920Z,30.50
2023-05-22T19:48:19.965Z,30.50
2023-05-22T19:50:47.788Z,30.30
2023-05-22T19:53:15.509Z,30.30
2023-05-22T19:55:43.523Z,30.30
2023-05-22T19:58:11.847Z,30.30
2023-05-22T20:00:39.863Z,30.30
2023-05-22T20:03:09.517Z,30.40
2023-05-22T20:05:37.930Z,30.30
2023-05-22T20:08:05.986Z,30.30
2023-05-22T20:10:34.516Z,30.30
2023-05-22T20:13:02.246Z,30.30
2023-05-22T20:15:33.806Z,30.20
2023-05-22T20:18:02.404Z,30.20
2023-05-22T20:20:31.088Z,30.20
2023-05-22T20:22:59.458Z,30.10
2023-05-22T20:25:27.723Z,29.90
2023-05-22T20:27:55.516Z,29.70
2023-05-22T20:30:23.342Z,29.70
2023-05-22T20:32:51.496Z,29.50
2023-05-22T20:35:19.589Z,29.60
2023-05-22T20:37:47.712Z,29.90
2023-05-22T20:40:15.758Z,29.70
2023-05-22T20:42:43.758Z,29.70
2023-05-22T20:45:14.286Z,29.50
2023-05-22T20:47:43.152Z,29.40
2023-05-22T20:50:11.114Z,29.50
2023-05-22T20:52:39.092Z,29.60
2023-05-22T20:55:07.012Z,29.60
2023-05-22T20:57:34.839Z,29.50
2023-05-22T21:00:02.545Z,29.60
2023-05-22T21:02:30.413Z,29.50
2023-05-22T21:04:58.209Z,29.60
2023-05-22T21:07:26.162Z,29.70
2023-05-22T21:09:54.242Z,29.50
2023-05-22T21:12:22.185Z,29.60
2023-05-22T21:14:49.936Z,29.60
2023-05-22T21:17:18.077Z,29.60
2023-05-22T21:19:45.843Z,29.60
2023-05-22T21:22:13.528Z,29.60
2023-05-22T21:24:41.504Z,29.50
2023-05-22T21:27:09.359Z,29.40
2023-05-22T21:29:37.235Z,29.50
2023-05-22T21:32:05.300Z,29.50
2023-05-22T21:34:33.042Z,29.40
2023-05-22T21:37:00.790Z,29.40
2023-05-22T21:39:28.846Z,29.50
2023-05-22T21:41:56.813Z,29.60
2023-05-22T21:44:24.580Z,29.50
2023-05-22T21:46:52.633Z,29.50
2023-05-22T21:49:20.517Z,29.50
2023-05-22T21:51:48.303Z,29.40
2023-05-22T21:54:16.784Z,29.40
2023-05-22T21:56:44.566Z,29.20
2023-05-22T21:59:12.431Z,29.30
2023-05-22T22:01:40.518Z,29.30
2023-05-22T22:04:08.430Z,29.30
2023-05-22T22:06:36.305Z,29.30
2023-05-22T22:09:04.529Z,29.30
2023-05-22T22:11:32.210Z,29.20
2023-05-22T22:14:00.355Z,29.20
2023-05-22T22:16:28.566Z,29.20
2023-05-22T22:18:56.405Z,29.30
2023-05-22T22:21:24.229Z,29.20
2023-05-22T22:23:52.414Z,29.20
2023-05-22T22:26:20.296Z,29.20
2023-05-22T22:28:48.090Z,29.20
2023-05-22T22:31:16.189Z,29.20
2023-05-22T22:33:44.120Z,29.20
2023-05-22T22:36:11.996Z,29.30
2023-05-22T22:38:39.899Z,29.20
2023-05-22T22:41:07.637Z,29.20
2023-05-22T22:43:35.557Z,29.00
2023-05-22T22:46:03.560Z,29.10
2023-05-22T22:48:31.527Z,29.00
2023-05-22T22:50:59.358Z,29.00
2023-05-22T22:53:27.441Z,29.20
2023-05-22T22:55:55.382Z,29.20
2023-05-22T22:58:23.349Z,29.20
2023-05-22T23:00:53.347Z,29.00
2023-05-22T23:03:21.145Z,29.00
2023-05-22T23:05:48.897Z,29.00
2023-05-22T23:08:16.877Z,29.20
2023-05-22T23:10:44.731Z,29.20
2023-05-22T23:13:12.744Z,29.20
2023-05-22T23:15:41.383Z,29.20
2023-05-22T23:18:09.731Z,29.20
2023-05-22T23:20:37.708Z,29.20
2023-05-22T23:23:06.689Z,29.20
2023-05-22T23:25:34.636Z,29.30
2023-05-22T23:28:02.773Z,29.30
2023-05-22T23:30:31.371Z,29.40
2023-05-22T23:32:59.263Z,29.40
2023-05-22T23:35:27.186Z,29.30
2023-05-22T23:37:55.332Z,29.30
2023-05-22T23:40:23.685Z,29.40
2023-05-22T23:42:51.908Z,29.50
2023-05-22T23:45:20.590Z,29.50
2023-05-22T23:47:48.545Z,29.50
2023-05-22T23:50:22.074Z,29.40
2023-05-22T23:52:50.257Z,29.50
2023-05-22T23:55:18.684Z,29.60
2023-05-22T23:57:46.967Z,29.60
